sensor_id;sensor_type;location;lat;lon;timestamp;pressure;altitude;pressure_sealevel;temperature;humidity
12799;BME280;19250;42.646;26.980;2023-05-06T00:00:49;98914.72;;;15.58;100.00
12799;BME280;19250;42.646;26.980;2023-05-06T00:03:16;98918.53;;;15.70;100.00
12799;BME280;19250;42.646;26.980;2023-05-06T00:05:44;98904.13;;;15.78;100.00
12799;BME280;19250;42.646;26.980;2023-05-06T00:08:12;98912.56;;;15.75;100.00
12799;BME280;19250;42.646;26.980;2023-05-06T00:10:39;98908.06;;;15.54;100.00
12799;BME280;19250;42.646;26.980;2023-05-06T00:13:07;98905.19;;;15.56;100.00
12799;BME280;19250;42.646;26.980;2023-05-06T00:15:36;98902.34;;;15.43;100.00
12799;BME280;19250;42.646;26.980;2023-05-06T00:18:03;98900.53;;;15.07;100.00
12799;BME280;19250;42.646;26.980;2023-05-06T00:20:30;98899.31;;;15.10;100.00
12799;BME280;19250;42.646;26.980;2023-05-06T00:22:58;98899.75;;;15.13;100.00
12799;BME280;19250;42.646;26.980;2023-05-06T00:25:25;98900.66;;;15.20;100.00
12799;BME280;19250;42.646;26.980;2023-05-06T00:27:52;98904.25;;;15.27;100.00
12799;BME280;19250;42.646;26.980;2023-05-06T00:30:20;98908.72;;;15.42;100.00
12799;BME280;19250;42.646;26.980;2023-05-06T00:32:48;98903.91;;;15.52;100.00
12799;BME280;19250;42.646;26.980;2023-05-06T00:35:16;98899.16;;;15.54;100.00
12799;BME280;19250;42.646;26.980;2023-05-06T00:37:44;98881.47;;;15.45;100.00
12799;BME280;19250;42.646;26.980;2023-05-06T00:40:12;98905.03;;;15.64;100.00
12799;BME280;19250;42.646;26.980;2023-05-06T00:42:39;98906.56;;;15.31;100.00
12799;BME280;19250;42.646;26.980;2023-05-06T00:45:08;98911.38;;;15.20;100.00
12799;BME280;19250;42.646;26.980;2023-05-06T00:47:35;98906.09;;;15.27;100.00
12799;BME280;19250;42.646;26.980;2023-05-06T00:50:05;98913.81;;;15.15;100.00
12799;BME280;19250;42.646;26.980;2023-05-06T00:52:33;98907.63;;;15.15;100.00
12799;BME280;19250;42.646;26.980;2023-05-06T00:55:00;98895.56;;;14.75;100.00
12799;BME280;19250;42.646;26.980;2023-05-06T00:57:28;98910.56;;;14.84;100.00
12799;BME280;19250;42.646;26.980;2023-05-06T00:59:56;98910.34;;;15.00;100.00
12799;BME280;19250;42.646;26.980;2023-05-06T01:02:23;98909.81;;;14.90;100.00
12799;BME280;19250;42.646;26.980;2023-05-06T01:04:51;98895.38;;;14.91;100.00
12799;BME280;19250;42.646;26.980;2023-05-06T01:07:29;98886.94;;;14.94;100.00
12799;BME280;19250;42.646;26.980;2023-05-06T01:10:02;98893.69;;;14.90;100.00
12799;BME280;19250;42.646;26.980;2023-05-06T01:12:36;98877.28;;;15.00;100.00
12799;BME280;19250;42.646;26.980;2023-05-06T01:15:09;98898.09;;;15.12;100.00
12799;BME280;19250;42.646;26.980;2023-05-06T01:17:41;98902.78;;;15.25;100.00
12799;BME280;19250;42.646;26.980;2023-05-06T01:20:10;98892.97;;;15.17;100.00
12799;BME280;19250;42.646;26.980;2023-05-06T01:22:41;98887.53;;;15.11;100.00
12799;BME280;19250;42.646;26.980;2023-05-06T01:25:16;98876.75;;;14.90;100.00
12799;BME280;19250;42.646;26.980;2023-05-06T01:27:44;98883.16;;;14.74;100.00
12799;BME280;19250;42.646;26.980;2023-05-06T01:30:13;98878.00;;;14.29;100.00
12799;BME280;19250;42.646;26.980;2023-05-06T01:32:49;98883.72;;;14.26;100.00
12799;BME280;19250;42.646;26.980;2023-05-06T01:35:24;98884.94;;;14.08;100.00
12799;BME280;19250;42.646;26.980;2023-05-06T01:38:01;98884.00;;;14.16;100.00
12799;BME280;19250;42.646;26.980;2023-05-06T01:40:32;98882.72;;;14.27;100.00
12799;BME280;19250;42.646;26.980;2023-05-06T01:43:01;98878.03;;;14.43;100.00
12799;BME280;19250;42.646;26.980;2023-05-06T01:45:33;98880.81;;;14.64;100.00
12799;BME280;19250;42.646;26.980;2023-05-06T01:48:01;98880.59;;;14.66;100.00
12799;BME280;19250;42.646;26.980;2023-05-06T01:50:29;98882.19;;;14.60;100.00
12799;BME280;19250;42.646;26.980;2023-05-06T01:53:01;98862.00;;;14.50;100.00
12799;BME280;19250;42.646;26.980;2023-05-06T01:55:30;98873.59;;;14.50;100.00
12799;BME280;19250;42.646;26.980;2023-05-06T01:57:57;98865.16;;;14.24;100.00
12799;BME280;19250;42.646;26.980;2023-05-06T02:00:24;98847.66;;;13.84;100.00
12799;BME280;19250;42.646;26.980;2023-05-06T02:02:51;98868.84;;;13.94;100.00
12799;BME280;19250;42.646;26.980;2023-05-06T02:05:19;98881.16;;;14.17;100.00
12799;BME280;19250;42.646;26.980;2023-05-06T02:07:46;98876.06;;;14.23;100.00
12799;BME280;19250;42.646;26.980;2023-05-06T02:10:13;98879.69;;;14.44;100.00
12799;BME280;19250;42.646;26.980;2023-05-06T02:12:42;98872.28;;;14.32;100.00
12799;BME280;19250;42.646;26.980;2023-05-06T02:15:10;98876.81;;;14.16;100.00
12799;BME280;19250;42.646;26.980;2023-05-06T02:17:37;98873.94;;;14.18;100.00
12799;BME280;19250;42.646;26.980;2023-05-06T02:20:06;98874.22;;;14.23;100.00
12799;BME280;19250;42.646;26.980;2023-05-06T02:22:34;98870.09;;;14.35;100.00
12799;BME280;19250;42.646;26.980;2023-05-06T02:25:01;98865.81;;;14.41;100.00
12799;BME280;19250;42.646;26.980;2023-05-06T02:27:28;98847.50;;;14.30;100.00
12799;BME280;19250;42.646;26.980;2023-05-06T02:29:57;98858.69;;;14.18;100.00
12799;BME280;19250;42.646;26.980;2023-05-06T02:32:24;98867.13;;;14.15;100.00
12799;BME280;19250;42.646;26.980;2023-05-06T02:34:52;98865.63;;;14.28;100.00
12799;BME280;19250;42.646;26.980;2023-05-06T02:37:19;98862.13;;;14.42;100.00
12799;BME280;19250;42.646;26.980;2023-05-06T02:39:46;98863.31;;;14.54;100.00
12799;BME280;19250;42.646;26.980;2023-05-06T02:42:14;98863.97;;;14.41;100.00
12799;BME280;19250;42.646;26.980;2023-05-06T02:44:41;98868.50;;;14.55;100.00
12799;BME280;19250;42.646;26.980;2023-05-06T02:47:10;98870.28;;;14.48;100.00
12799;BME280;19250;42.646;26.980;2023-05-06T02:49:37;98862.69;;;14.52;100.00
12799;BME280;19250;42.646;26.980;2023-05-06T02:52:05;98865.53;;;14.21;100.00
12799;BME280;19250;42.646;26.980;2023-05-06T02:54:32;98862.88;;;14.36;100.00
12799;BME280;19250;42.646;26.980;2023-05-06T02:56:59;98874.91;;;14.40;100.00
12799;BME280;19250;42.646;26.980;2023-05-06T02:59:27;98873.78;;;14.49;100.00
12799;BME280;19250;42.646;26.980;2023-05-06T03:01:54;98882.19;;;14.60;100.00
12799;BME280;19250;42.646;26.980;2023-05-06T03:04:23;98878.94;;;14.65;100.00
12799;BME280;19250;42.646;26.980;2023-05-06T03:06:50;98879.22;;;14.70;100.00
12799;BME280;19250;42.646;26.980;2023-05-06T03:09:17;98865.59;;;14.71;100.00
12799;BME280;19250;42.646;26.980;2023-05-06T03:11:45;98876.78;;;14.75;100.00
12799;BME280;19250;42.646;26.980;2023-05-06T03:14:12;98871.63;;;14.59;100.00
12799;BME280;19250;42.646;26.980;2023-05-06T03:16:39;98872.25;;;14.76;100.00
12799;BME280;19250;42.646;26.980;2023-05-06T03:19:07;98878.47;;;14.76;100.00
12799;BME280;19250;42.646;26.980;2023-05-06T03:21:35;98874.38;;;14.80;100.00
12799;BME280;19250;42.646;26.980;2023-05-06T03:24:03;98881.66;;;14.86;100.00
12799;BME280;19250;42.646;26.980;2023-05-06T03:26:30;98879.56;;;14.82;100.00
12799;BME280;19250;42.646;26.980;2023-05-06T03:28:57;98876.25;;;14.80;100.00
12799;BME280;19250;42.646;26.980;2023-05-06T03:31:25;98886.13;;;14.79;100.00
12799;BME280;19250;42.646;26.980;2023-05-06T03:33:52;98890.59;;;14.72;100.00
12799;BME280;19250;42.646;26.980;2023-05-06T03:36:19;98880.22;;;14.69;100.00
12799;BME280;19250;42.646;26.980;2023-05-06T03:38:50;98884.94;;;14.82;100.00
12799;BME280;19250;42.646;26.980;2023-05-06T03:41:17;98896.44;;;14.61;100.00
12799;BME280;19250;42.646;26.980;2023-05-06T03:43:44;98893.19;;;14.65;100.00
12799;BME280;19250;42.646;26.980;2023-05-06T03:46:11;98897.31;;;14.97;100.00
12799;BME280;19250;42.646;26.980;2023-05-06T03:48:39;98900.38;;;14.94;100.00
12799;BME280;19250;42.646;26.980;2023-05-06T03:51:06;98913.50;;;14.89;100.00
12799;BME280;19250;42.646;26.980;2023-05-06T03:53:33;98916.56;;;14.86;100.00
12799;BME280;19250;42.646;26.980;2023-05-06T03:56:02;98915.59;;;15.08;100.00
12799;BME280;19250;42.646;26.980;2023-05-06T03:58:29;98921.63;;;15.10;100.00
12799;BME280;19250;42.646;26.980;2023-05-06T04:00:57;98917.91;;;15.11;100.00
12799;BME280;19250;42.646;26.980;2023-05-06T04:03:25;98917.28;;;15.31;100.00
12799;BME280;19250;42.646;26.980;2023-05-06T04:05:53;98928.94;;;15.38;100.00
12799;BME280;19250;42.646;26.980;2023-05-06T04:08:20;98931.88;;;15.43;100.00
12799;BME280;19250;42.646;26.980;2023-05-06T04:10:47;98937.16;;;15.51;100.00
12799;BME280;19250;42.646;26.980;2023-05-06T04:13:16;98932.91;;;15.56;100.00
12799;BME280;19250;42.646;26.980;2023-05-06T04:15:44;98936.28;;;15.65;100.00
12799;BME280;19250;42.646;26.980;2023-05-06T04:18:11;98939.59;;;15.88;100.00
12799;BME280;19250;42.646;26.980;2023-05-06T04:20:45;98944.19;;;15.94;100.00
12799;BME280;19250;42.646;26.980;2023-05-06T04:23:12;98942.19;;;16.03;100.00
12799;BME280;19250;42.646;26.980;2023-05-06T04:25:40;98945.34;;;15.85;100.00
12799;BME280;19250;42.646;26.980;2023-05-06T04:28:07;98943.81;;;15.76;100.00
12799;BME280;19250;42.646;26.980;2023-05-06T04:30:36;98944.81;;;15.68;100.00
12799;BME280;19250;42.646;26.980;2023-05-06T04:33:03;98938.50;;;15.83;100.00
12799;BME280;19250;42.646;26.980;2023-05-06T04:35:30;98953.66;;;16.11;100.00
12799;BME280;19250;42.646;26.980;2023-05-06T04:37:58;98948.69;;;16.15;100.00
12799;BME280;19250;42.646;26.980;2023-05-06T04:40:26;98950.59;;;16.49;100.00
12799;BME280;19250;42.646;26.980;2023-05-06T04:42:53;98935.63;;;16.40;100.00
12799;BME280;19250;42.646;26.980;2023-05-06T04:45:20;98951.16;;;16.65;100.00
12799;BME280;19250;42.646;26.980;2023-05-06T04:47:50;98949.44;;;16.58;100.00
12799;BME280;19250;42.646;26.980;2023-05-06T04:50:17;98955.06;;;16.35;100.00
12799;BME280;19250;42.646;26.980;2023-05-06T04:52:45;98959.28;;;16.44;100.00
12799;BME280;19250;42.646;26.980;2023-05-06T04:55:12;98966.56;;;16.78;98.63
12799;BME280;19250;42.646;26.980;2023-05-06T04:57:39;98963.50;;;16.94;96.22
12799;BME280;19250;42.646;26.980;2023-05-06T05:00:07;98963.28;;;17.36;93.25
12799;BME280;19250;42.646;26.980;2023-05-06T05:02:36;98971.25;;;17.58;89.25
12799;BME280;19250;42.646;26.980;2023-05-06T05:05:05;98965.56;;;17.46;88.73
12799;BME280;19250;42.646;26.980;2023-05-06T05:07:32;98963.91;;;17.45;87.30
12799;BME280;19250;42.646;26.980;2023-05-06T05:10:00;98968.84;;;17.28;88.65
12799;BME280;19250;42.646;26.980;2023-05-06T05:12:27;98972.59;;;17.40;87.71
12799;BME280;19250;42.646;26.980;2023-05-06T05:14:54;98972.47;;;17.62;84.78
12799;BME280;19250;42.646;26.980;2023-05-06T05:17:21;98971.06;;;17.72;83.46
12799;BME280;19250;42.646;26.980;2023-05-06T05:19:49;98966.94;;;17.76;84.16
12799;BME280;19250;42.646;26.980;2023-05-06T05:22:19;98969.41;;;17.84;81.35
12799;BME280;19250;42.646;26.980;2023-05-06T05:24:47;98974.81;;;18.04;79.40
12799;BME280;19250;42.646;26.980;2023-05-06T05:27:14;98965.09;;;18.03;78.51
12799;BME280;19250;42.646;26.980;2023-05-06T05:29:41;98969.44;;;18.17;77.46
12799;BME280;19250;42.646;26.980;2023-05-06T05:32:08;98965.91;;;17.97;77.78
12799;BME280;19250;42.646;26.980;2023-05-06T05:34:36;98974.63;;;18.52;74.83
12799;BME280;19250;42.646;26.980;2023-05-06T05:37:03;98972.53;;;18.54;72.86
12799;BME280;19250;42.646;26.980;2023-05-06T05:39:32;98978.38;;;18.37;72.01
12799;BME280;19250;42.646;26.980;2023-05-06T05:41:59;98977.72;;;18.35;69.33
12799;BME280;19250;42.646;26.980;2023-05-06T05:44:26;98978.16;;;18.52;67.98
12799;BME280;19250;42.646;26.980;2023-05-06T05:46:54;98976.69;;;18.69;64.85
12799;BME280;19250;42.646;26.980;2023-05-06T05:49:21;98976.88;;;18.41;67.33
12799;BME280;19250;42.646;26.980;2023-05-06T05:51:48;98981.81;;;18.97;64.48
12799;BME280;19250;42.646;26.980;2023-05-06T05:54:15;98948.22;;;18.67;63.09
12799;BME280;19250;42.646;26.980;2023-05-06T05:56:44;98994.59;;;19.21;61.53
12799;BME280;19250;42.646;26.980;2023-05-06T05:59:11;98995.00;;;19.25;62.84
12799;BME280;19250;42.646;26.980;2023-05-06T06:01:39;98989.97;;;19.35;62.38
12799;BME280;19250;42.646;26.980;2023-05-06T06:04:06;98991.28;;;19.19;62.35
12799;BME280;19250;42.646;26.980;2023-05-06T06:06:34;98986.22;;;19.42;61.94
12799;BME280;19250;42.646;26.980;2023-05-06T06:09:01;98987.56;;;19.20;62.11
12799;BME280;19250;42.646;26.980;2023-05-06T06:11:29;98980.84;;;19.74;60.28
12799;BME280;19250;42.646;26.980;2023-05-06T06:13:57;98978.34;;;20.03;58.56
12799;BME280;19250;42.646;26.980;2023-05-06T06:16:25;98975.06;;;20.51;56.57
12799;BME280;19250;42.646;26.980;2023-05-06T06:18:52;98973.88;;;20.16;57.33
12799;BME280;19250;42.646;26.980;2023-05-06T06:21:19;98977.47;;;20.09;58.14
12799;BME280;19250;42.646;26.980;2023-05-06T06:23:47;98982.56;;;20.49;55.00
12799;BME280;19250;42.646;26.980;2023-05-06T06:26:14;98979.16;;;20.60;55.52
12799;BME280;19250;42.646;26.980;2023-05-06T06:28:41;98984.53;;;20.85;54.42
12799;BME280;19250;42.646;26.980;2023-05-06T06:31:10;98985.81;;;20.39;55.47
12799;BME280;19250;42.646;26.980;2023-05-06T06:33:38;98988.38;;;20.52;55.23
12799;BME280;19250;42.646;26.980;2023-05-06T06:36:05;98984.69;;;21.26;53.45
12799;BME280;19250;42.646;26.980;2023-05-06T06:38:33;98971.06;;;20.35;55.22
12799;BME280;19250;42.646;26.980;2023-05-06T06:41:00;98982.50;;;21.35;52.77
12799;BME280;19250;42.646;26.980;2023-05-06T06:43:27;98970.09;;;21.57;51.37
12799;BME280;19250;42.646;26.980;2023-05-06T06:45:54;98993.81;;;21.80;49.87
12799;BME280;19250;42.646;26.980;2023-05-06T06:48:23;98991.28;;;21.96;50.15
12799;BME280;19250;42.646;26.980;2023-05-06T06:50:50;98981.78;;;21.57;48.76
12799;BME280;19250;42.646;26.980;2023-05-06T06:53:18;98987.84;;;21.41;49.27
12799;BME280;19250;42.646;26.980;2023-05-06T06:55:45;98991.47;;;21.35;49.60
12799;BME280;19250;42.646;26.980;2023-05-06T06:58:13;98989.81;;;21.52;48.70
12799;BME280;19250;42.646;26.980;2023-05-06T07:00:40;99006.41;;;21.92;46.92
12799;BME280;19250;42.646;26.980;2023-05-06T07:03:07;98996.59;;;21.91;47.42
12799;BME280;19250;42.646;26.980;2023-05-06T07:05:36;98996.69;;;22.26;47.24
12799;BME280;19250;42.646;26.980;2023-05-06T07:08:03;98990.25;;;22.20;46.97
12799;BME280;19250;42.646;26.980;2023-05-06T07:10:31;98989.78;;;22.12;47.54
12799;BME280;19250;42.646;26.980;2023-05-06T07:12:58;98976.78;;;22.14;46.52
12799;BME280;19250;42.646;26.980;2023-05-06T07:15:25;99002.34;;;22.48;46.55
12799;BME280;19250;42.646;26.980;2023-05-06T07:17:52;99000.09;;;22.33;46.89
12799;BME280;19250;42.646;26.980;2023-05-06T07:20:20;99003.00;;;22.20;47.10
12799;BME280;19250;42.646;26.980;2023-05-06T07:22:48;98995.03;;;22.60;45.72
12799;BME280;19250;42.646;26.980;2023-05-06T07:25:16;98989.94;;;22.52;45.96
12799;BME280;19250;42.646;26.980;2023-05-06T07:27:43;99001.19;;;22.78;46.01
12799;BME280;19250;42.646;26.980;2023-05-06T07:30:11;99009.16;;;22.80;45.53
12799;BME280;19250;42.646;26.980;2023-05-06T07:32:39;99006.19;;;22.93;45.58
12799;BME280;19250;42.646;26.980;2023-05-06T07:35:07;99009.97;;;22.92;45.47
12799;BME280;19250;42.646;26.980;2023-05-06T07:37:34;99007.31;;;23.09;44.05
12799;BME280;19250;42.646;26.980;2023-05-06T07:40:04;99008.06;;;22.69;45.11
12799;BME280;19250;42.646;26.980;2023-05-06T07:42:32;99012.06;;;22.55;45.83
12799;BME280;19250;42.646;26.980;2023-05-06T07:44:59;99013.72;;;23.03;44.41
12799;BME280;19250;42.646;26.980;2023-05-06T07:47:28;99009.09;;;23.03;44.73
12799;BME280;19250;42.646;26.980;2023-05-06T07:49:56;99014.06;;;23.06;45.12
12799;BME280;19250;42.646;26.980;2023-05-06T07:52:23;99016.50;;;23.31;44.68
12799;BME280;19250;42.646;26.980;2023-05-06T07:54:51;99016.66;;;23.24;43.77
12799;BME280;19250;42.646;26.980;2023-05-06T07:57:21;99013.56;;;23.44;43.47
12799;BME280;19250;42.646;26.980;2023-05-06T07:59:50;99011.50;;;23.91;42.46
12799;BME280;19250;42.646;26.980;2023-05-06T08:02:17;99027.41;;;23.54;43.13
12799;BME280;19250;42.646;26.980;2023-05-06T08:04:45;99021.66;;;23.67;43.54
12799;BME280;19250;42.646;26.980;2023-05-06T08:07:12;99025.06;;;24.03;42.97
12799;BME280;19250;42.646;26.980;2023-05-06T08:09:39;99016.69;;;24.21;42.31
12799;BME280;19250;42.646;26.980;2023-05-06T08:12:06;99021.66;;;23.67;42.73
12799;BME280;19250;42.646;26.980;2023-05-06T08:14:35;99039.72;;;23.22;43.46
12799;BME280;19250;42.646;26.980;2023-05-06T08:17:03;99037.31;;;23.60;43.03
12799;BME280;19250;42.646;26.980;2023-05-06T08:19:30;99025.38;;;24.18;41.87
12799;BME280;19250;42.646;26.980;2023-05-06T08:21:57;99024.16;;;23.85;42.92
12799;BME280;19250;42.646;26.980;2023-05-06T08:24:25;99023.38;;;24.47;41.47
12799;BME280;19250;42.646;26.980;2023-05-06T08:26:52;99025.03;;;24.14;42.39
12799;BME280;19250;42.646;26.980;2023-05-06T08:29:19;99021.34;;;24.70;41.59
12799;BME280;19250;42.646;26.980;2023-05-06T08:31:48;99034.78;;;24.27;42.00
12799;BME280;19250;42.646;26.980;2023-05-06T08:34:15;99020.91;;;24.45;42.25
12799;BME280;19250;42.646;26.980;2023-05-06T08:36:45;99024.94;;;24.92;41.05
12799;BME280;19250;42.646;26.980;2023-05-06T08:39:12;99036.84;;;24.53;41.47
12799;BME280;19250;42.646;26.980;2023-05-06T08:41:40;99036.38;;;24.73;41.39
12799;BME280;19250;42.646;26.980;2023-05-06T08:44:14;99046.94;;;24.36;41.03
12799;BME280;19250;42.646;26.980;2023-05-06T08:46:42;99033.63;;;24.73;40.43
12799;BME280;19250;42.646;26.980;2023-05-06T08:49:11;99032.47;;;24.07;41.97
12799;BME280;19250;42.646;26.980;2023-05-06T08:51:41;99035.47;;;24.34;41.15
12799;BME280;19250;42.646;26.980;2023-05-06T08:54:10;99032.56;;;24.41;41.29
12799;BME280;19250;42.646;26.980;2023-05-06T08:56:39;99040.69;;;24.85;40.52
12799;BME280;19250;42.646;26.980;2023-05-06T08:59:09;99037.28;;;24.95;39.05
12799;BME280;19250;42.646;26.980;2023-05-06T09:01:38;99023.31;;;24.92;38.73
12799;BME280;19250;42.646;26.980;2023-05-06T09:04:06;99032.00;;;25.27;38.76
12799;BME280;19250;42.646;26.980;2023-05-06T09:06:35;99034.81;;;24.94;38.77
12799;BME280;19250;42.646;26.980;2023-05-06T09:09:02;99032.19;;;25.59;38.27
12799;BME280;19250;42.646;26.980;2023-05-06T09:11:30;99020.72;;;26.10;37.56
12799;BME280;19250;42.646;26.980;2023-05-06T09:14:08;99029.06;;;25.50;36.72
12799;BME280;19250;42.646;26.980;2023-05-06T09:16:36;99022.88;;;25.00;37.05
12799;BME280;19250;42.646;26.980;2023-05-06T09:19:04;99019.25;;;24.94;37.04
12799;BME280;19250;42.646;26.980;2023-05-06T09:21:32;99000.91;;;24.56;37.18
12799;BME280;19250;42.646;26.980;2023-05-06T09:24:02;99033.16;;;24.76;38.55
12799;BME280;19250;42.646;26.980;2023-05-06T09:26:30;99035.72;;;24.49;39.05
12799;BME280;19250;42.646;26.980;2023-05-06T09:28:58;99039.38;;;24.88;38.44
12799;BME280;19250;42.646;26.980;2023-05-06T09:31:27;99029.53;;;25.47;37.38
12799;BME280;19250;42.646;26.980;2023-05-06T09:33:55;99022.88;;;24.50;38.94
12799;BME280;19250;42.646;26.980;2023-05-06T09:36:24;99023.13;;;24.15;38.95
12799;BME280;19250;42.646;26.980;2023-05-06T09:38:52;99020.44;;;24.03;39.48
12799;BME280;19250;42.646;26.980;2023-05-06T09:41:22;99019.81;;;24.13;40.19
12799;BME280;19250;42.646;26.980;2023-05-06T09:43:51;99022.41;;;24.36;39.75
12799;BME280;19250;42.646;26.980;2023-05-06T09:46:20;99022.66;;;24.51;39.01
12799;BME280;19250;42.646;26.980;2023-05-06T09:48:51;99017.53;;;24.21;39.12
12799;BME280;19250;42.646;26.980;2023-05-06T09:51:19;99020.13;;;24.16;40.10
12799;BME280;19250;42.646;26.980;2023-05-06T09:53:47;99014.34;;;23.56;40.24
12799;BME280;19250;42.646;26.980;2023-05-06T09:56:15;99017.72;;;24.03;39.83
12799;BME280;19250;42.646;26.980;2023-05-06T09:58:44;98998.66;;;24.86;38.10
12799;BME280;19250;42.646;26.980;2023-05-06T10:01:13;98980.41;;;25.25;37.35
12799;BME280;19250;42.646;26.980;2023-05-06T10:03:42;99018.03;;;24.85;38.77
12799;BME280;19250;42.646;26.980;2023-05-06T10:06:11;98991.47;;;24.80;38.51
12799;BME280;19250;42.646;26.980;2023-05-06T10:08:41;98984.47;;;24.51;39.57
12799;BME280;19250;42.646;26.980;2023-05-06T10:11:10;99009.09;;;24.23;39.46
12799;BME280;19250;42.646;26.980;2023-05-06T10:13:39;99019.69;;;24.36;40.03
12799;BME280;19250;42.646;26.980;2023-05-06T10:16:10;99027.09;;;24.24;40.56
12799;BME280;19250;42.646;26.980;2023-05-06T10:18:37;99014.66;;;24.61;40.23
12799;BME280;19250;42.646;26.980;2023-05-06T10:21:09;99007.75;;;24.75;39.80
12799;BME280;19250;42.646;26.980;2023-05-06T10:23:43;99001.81;;;24.62;39.77
12799;BME280;19250;42.646;26.980;2023-05-06T10:26:15;99012.06;;;24.38;40.49
12799;BME280;19250;42.646;26.980;2023-05-06T10:28:45;99013.72;;;24.39;40.21
12799;BME280;19250;42.646;26.980;2023-05-06T10:31:15;99013.97;;;23.93;40.70
12799;BME280;19250;42.646;26.980;2023-05-06T10:33:45;99016.97;;;23.79;40.87
12799;BME280;19250;42.646;26.980;2023-05-06T10:36:17;99015.22;;;23.73;41.30
12799;BME280;19250;42.646;26.980;2023-05-06T10:38:48;99006.06;;;24.08;41.68
12799;BME280;19250;42.646;26.980;2023-05-06T10:41:20;99014.47;;;24.51;40.88
12799;BME280;19250;42.646;26.980;2023-05-06T10:43:48;98997.59;;;24.87;40.54
12799;BME280;19250;42.646;26.980;2023-05-06T10:46:23;98992.13;;;25.26;39.69
12799;BME280;19250;42.646;26.980;2023-05-06T10:49:14;98992.44;;;25.29;39.14
12799;BME280;19250;42.646;26.980;2023-05-06T10:51:45;98990.41;;;24.65;39.47
12799;BME280;19250;42.646;26.980;2023-05-06T10:54:21;98988.88;;;23.91;41.09
12799;BME280;19250;42.646;26.980;2023-05-06T10:57:08;98996.44;;;23.89;41.06
12799;BME280;19250;42.646;26.980;2023-05-06T10:59:36;98996.19;;;23.45;41.77
12799;BME280;19250;42.646;26.980;2023-05-06T11:02:12;99005.16;;;23.34;42.26
12799;BME280;19250;42.646;26.980;2023-05-06T11:04:40;99010.94;;;23.38;42.86
12799;BME280;19250;42.646;26.980;2023-05-06T11:07:09;98985.06;;;23.12;42.65
12799;BME280;19250;42.646;26.980;2023-05-06T11:09:56;99011.72;;;23.10;43.04
12799;BME280;19250;42.646;26.980;2023-05-06T11:12:44;99009.69;;;23.17;42.91
12799;BME280;19250;42.646;26.980;2023-05-06T11:15:20;99001.03;;;23.31;42.44
12799;BME280;19250;42.646;26.980;2023-05-06T11:17:48;98988.94;;;23.51;42.80
12799;BME280;19250;42.646;26.980;2023-05-06T11:20:20;98992.25;;;23.98;41.07
12799;BME280;19250;42.646;26.980;2023-05-06T11:22:47;98994.25;;;24.02;41.45
12799;BME280;19250;42.646;26.980;2023-05-06T11:25:38;99000.91;;;23.95;41.88
12799;BME280;19250;42.646;26.980;2023-05-06T11:28:09;98992.81;;;23.83;41.54
12799;BME280;19250;42.646;26.980;2023-05-06T11:30:39;98996.75;;;23.36;42.40
12799;BME280;19250;42.646;26.980;2023-05-06T11:33:14;99001.53;;;22.94;42.30
12799;BME280;19250;42.646;26.980;2023-05-06T11:35:44;99006.50;;;22.62;41.33
12799;BME280;19250;42.646;26.980;2023-05-06T11:38:11;99005.34;;;22.69;41.61
12799;BME280;19250;42.646;26.980;2023-05-06T11:40:40;98985.50;;;22.81;41.94
12799;BME280;19250;42.646;26.980;2023-05-06T11:43:11;99004.19;;;22.77;42.97
12799;BME280;19250;42.646;26.980;2023-05-06T11:45:42;98985.34;;;22.99;42.65
12799;BME280;19250;42.646;26.980;2023-05-06T11:48:12;98988.88;;;23.62;41.74
12799;BME280;19250;42.646;26.980;2023-05-06T11:50:43;98981.19;;;24.49;40.29
12799;BME280;19250;42.646;26.980;2023-05-06T11:53:12;98992.97;;;24.71;40.04
12799;BME280;19250;42.646;26.980;2023-05-06T11:55:40;98981.84;;;24.23;40.76
12799;BME280;19250;42.646;26.980;2023-05-06T11:58:11;98974.34;;;24.30;41.45
12799;BME280;19250;42.646;26.980;2023-05-06T12:00:45;98982.00;;;24.33;40.96
12799;BME280;19250;42.646;26.980;2023-05-06T12:03:16;98977.72;;;24.20;40.88
12799;BME280;19250;42.646;26.980;2023-05-06T12:05:43;98968.84;;;23.68;41.69
12799;BME280;19250;42.646;26.980;2023-05-06T12:08:12;98987.94;;;23.17;41.22
12799;BME280;19250;42.646;26.980;2023-05-06T12:10:41;98988.31;;;22.86;42.01
12799;BME280;19250;42.646;26.980;2023-05-06T12:13:08;98984.22;;;22.71;42.35
12799;BME280;19250;42.646;26.980;2023-05-06T12:15:36;98984.19;;;22.83;42.56
12799;BME280;19250;42.646;26.980;2023-05-06T12:18:04;98942.44;;;22.43;42.66
12799;BME280;19250;42.646;26.980;2023-05-06T12:20:33;98967.75;;;22.90;42.20
12799;BME280;19250;42.646;26.980;2023-05-06T12:23:07;98978.66;;;23.41;41.67
12799;BME280;19250;42.646;26.980;2023-05-06T12:25:34;98974.75;;;23.94;40.50
12799;BME280;19250;42.646;26.980;2023-05-06T12:28:12;98967.56;;;25.04;38.42
12799;BME280;19250;42.646;26.980;2023-05-06T12:30:39;98969.00;;;25.50;37.54
12799;BME280;19250;42.646;26.980;2023-05-06T12:33:09;98975.53;;;26.03;36.83
12799;BME280;19250;42.646;26.980;2023-05-06T12:35:39;98973.47;;;25.88;37.50
12799;BME280;19250;42.646;26.980;2023-05-06T12:38:08;98975.81;;;25.09;38.55
12799;BME280;19250;42.646;26.980;2023-05-06T12:40:36;98965.78;;;25.36;36.67
12799;BME280;19250;42.646;26.980;2023-05-06T12:43:03;98967.19;;;26.46;35.31
12799;BME280;19250;42.646;26.980;2023-05-06T12:45:30;98969.31;;;27.23;33.96
12799;BME280;19250;42.646;26.980;2023-05-06T12:47:59;98959.91;;;26.25;34.85
12799;BME280;19250;42.646;26.980;2023-05-06T12:50:31;98970.28;;;25.26;36.45
12799;BME280;19250;42.646;26.980;2023-05-06T12:53:00;98962.66;;;24.51;37.15